Flight Track Log - Related Links

Times and Time Zones

All times are in EDT time to prevent confusion due to time zone crossing. See the SWA2236 flight status page for this flight to view local times or setup timezone preferences in your user account.

Time Position Orientation Groundspeed Altitude Reporting Facility
EDT Latitude Longitude Course Direction KTS MPH feet Rate Location/Type
Thu 07:12:53 AM 32.8333 -96.8333 132° Southeast 172 198 1,100  Level Dallas / Fort Worth TRACON
Thu 07:14:29 AM 32.7833 -96.7667 132° Southeast 210 242 4,900 2,280 Climbing Dallas / Fort Worth TRACON
Thu 07:15:23 AM 32.7500 -96.7833 203° Southwest 240 276 6,800 2,073 Climbing Dallas / Fort Worth TRACON
Thu 07:17:14 AM 32.7678 -96.9639 277° West 317 365 10,600 2,070 Climbing Fort Worth Center
Thu 07:18:14 AM 32.7828 -97.0775 279° West 336 387 12,700 2,450 Climbing Fort Worth Center
Thu 07:19:14 AM 32.7978 -97.1958 279° West 354 407 15,500 2,700 Climbing Fort Worth Center
Thu 07:20:14 AM 32.8144 -97.3244 279° West 390 449 18,100 2,500 Climbing Fort Worth Center
Thu 07:21:14 AM 32.8292 -97.4506 278° West 395 455 20,500 2,350 Climbing Fort Worth Center
Thu 07:22:14 AM 32.8708 -97.5867 290° West 411 473 22,800 2,200 Climbing Fort Worth Center
Thu 07:23:14 AM 32.9144 -97.7203 291° West 420 483 24,900 1,950 Climbing Fort Worth Center
Thu 07:24:14 AM 32.9600 -97.8542 292° West 426 490 26,700 1,700 Climbing Fort Worth Center
Thu 07:25:14 AM 33.0072 -97.9931 292° West 441 507 28,300 1,550 Climbing Fort Worth Center
Thu 07:26:14 AM 33.0547 -98.1372 291° West 455 524 29,800 1,700 Climbing Fort Worth Center
Thu 07:27:14 AM 33.1039 -98.2789 293° West 460 529 31,700 1,900 Climbing Fort Worth Center
Thu 07:28:14 AM 33.1486 -98.4208 291° West 460 529 33,600 1,750 Climbing Fort Worth Center
Thu 07:29:14 AM 33.1914 -98.5406 293° West 443 510 35,200 1,550 Climbing Fort Worth Center
Thu 07:30:14 AM 33.2339 -98.6775 290° West 443 510 36,700 1,400 Climbing Fort Worth Center
Thu 07:31:14 AM 33.2764 -98.8122 291° West 443 510 38,000 650 Climbing Fort Worth Center
Thu 07:32:14 AM 33.3208 -98.9497 291° West 443 510 38,000  Level Fort Worth Center
Thu 07:33:14 AM 33.3647 -99.0872 291° West 443 510 38,000  Level Fort Worth Center
Thu 07:34:14 AM 33.4069 -99.2200 291° West 443 510 38,000  Level Fort Worth Center
Thu 07:35:14 AM 33.4508 -99.3553 291° West 438 504 38,000  Level Fort Worth Center
Thu 07:36:14 AM 33.4925 -99.4858 291° West 433 498 38,000  Level Fort Worth Center
Thu 07:37:14 AM 33.5361 -99.6214 291° West 433 498 38,000  Level Fort Worth Center
Thu 07:38:14 AM 33.5753 -99.7569 289° West 433 498 38,000  Level Fort Worth Center
Thu 07:39:14 AM 33.6186 -99.8903 291° West 433 498 38,000  Level Fort Worth Center
Thu 07:40:14 AM 33.6619 -100.0264 291° West 433 498 38,000  Level Fort Worth Center
Thu 07:41:14 AM 33.7028 -100.1625 290° West 433 498 38,000  Level Fort Worth Center
Thu 07:42:14 AM 33.7456 -100.2986 291° West 433 498 38,000  Level Fort Worth Center
Thu 07:43:14 AM 33.7883 -100.4300 291° West 433 498 38,000  Level Fort Worth Center
Thu 07:44:14 AM 33.8289 -100.5714 289° West 433 498 38,000  Level Fort Worth Center
Thu 07:45:14 AM 33.8714 -100.7031 291° West 433 498 38,000  Level Fort Worth Center
Thu 07:46:14 AM 33.9114 -100.8397 289° West 433 498 38,000  Level Fort Worth Center
Thu 07:47:14 AM 33.9536 -100.9767 290° West 433 498 38,000  Level Fort Worth Center
Thu 07:48:14 AM 33.9992 -101.1261 290° West 433 498 38,000  Level Fort Worth Center
Thu 07:49:14 AM 34.0331 -101.2506 288° West 433 498 38,000  Level Fort Worth Center
Thu 07:50:14 AM 34.0783 -101.4003 290° West 433 498 38,000  Level Fort Worth Center
Thu 07:51:14 AM 34.1161 -101.5250 290° West 433 498 38,000  Level Fort Worth Center
Thu 07:52:14 AM 34.1631 -101.6778 290° West 433 498 38,000  Level Fort Worth Center
Thu 07:54:11 AM 34.2322 -101.9222 289° West 439 505 38,000  Level Albuquerque Center
Thu 07:55:12 AM 34.2725 -102.0633 289° West 440 506 38,000  Level Albuquerque Center
Thu 07:56:12 AM 34.3133 -102.2053 289° West 444 511 38,000  Level Albuquerque Center
Thu 07:57:12 AM 34.3544 -102.3450 290° West 442 509 38,000  Level Albuquerque Center
Thu 07:58:13 AM 34.3942 -102.4839 289° West 438 504 38,000  Level Albuquerque Center
Thu 07:59:13 AM 34.4433 -102.6522 290° West 440 506 38,000  Level Albuquerque Center
Thu 08:00:13 AM 34.4825 -102.7928 289° West 440 506 38,000  Level Albuquerque Center
Thu 08:01:14 AM 34.5039 -102.9269 281° West 445 512 38,000  Level Albuquerque Center
Thu 08:02:14 AM 34.5244 -103.0725 280° West 438 504 38,000  Level Albuquerque Center
Thu 08:03:14 AM 34.5414 -103.2217 278° West 441 507 38,000  Level Albuquerque Center
Thu 08:04:15 AM 34.5606 -103.3692 279° West 440 506 38,000  Level Albuquerque Center
Thu 08:05:15 AM 34.5772 -103.5178 278° West 440 506 38,000  Level Albuquerque Center
Thu 08:06:15 AM 34.6022 -103.6664 282° West 444 511 38,000  Level Albuquerque Center
Thu 08:07:16 AM 34.6400 -103.8094 288° West 441 507 38,000  Level Albuquerque Center
Thu 08:08:16 AM 34.6742 -103.9539 286° West 441 507 38,000  Level Albuquerque Center
Thu 08:09:17 AM 34.7103 -104.0994 287° West 443 510 38,000  Level Albuquerque Center
Thu 08:10:17 AM 34.7442 -104.2442 286° West 440 506 38,000  Level Albuquerque Center
Thu 08:11:18 AM 34.7803 -104.3889 287° West 441 507 38,000 -298 Level Albuquerque Center
Thu 08:12:18 AM 34.8083 -104.5086 286° West 438 504 37,400 -1,488 Descending Albuquerque Center
Thu 08:13:19 AM 34.8403 -104.6517 285° West 434 499 35,000 -1,686 Descending Albuquerque Center
Thu 08:14:19 AM 34.8542 -104.8050 276° West 449 517 34,000 -1,000 Descending Albuquerque Center
Thu 08:15:19 AM 34.8703 -104.9600 277° West 454 522 33,000 -1,041 Descending Albuquerque Center
Thu 08:16:20 AM 34.8872 -105.1128 278° West 452 520 31,900 -1,041 Descending Albuquerque Center
Thu 08:17:20 AM 34.9022 -105.2647 277° West 449 517 30,900 -1,488 Descending Albuquerque Center
Thu 08:18:21 AM 34.9169 -105.4150 277° West 445 512 28,900 -1,983 Descending Albuquerque Center
Thu 08:19:21 AM 34.9308 -105.5586 277° West 430 495 26,900 -2,380 Descending Albuquerque Center
Thu 08:20:22 AM 34.9450 -105.7014 277° West 421 484 24,100 -2,479 Descending Albuquerque Center
Thu 08:21:22 AM 34.9572 -105.8442 276° West 420 483 21,900 -2,182 Descending Albuquerque Center
Thu 08:22:23 AM 34.9706 -105.9925 276° West 414 476 19,700 -2,089 Descending Albuquerque Center
Thu 08:23:14 AM 34.9808 -106.1053 276° West 391 450 18,000 -1,730 Descending Albuquerque Center
Thu 08:24:14 AM 34.9925 -106.2422 276° West 382 440 16,500 -1,774 Descending Albuquerque Center
Thu 08:25:09 AM 34.9983 -106.3472 274° West 365 420 14,600 -1,826 Descending Albuquerque Center
Thu 08:26:09 AM 34.9586 -106.4483 244° Southwest 328 377 13,000 -1,587 Descending Albuquerque Center
Thu 08:27:10 AM 34.9186 -106.5364 241° Southwest 278 320 11,400 -1,359 Descending Albuquerque Center
Thu 08:28:17 AM 34.8769 -106.6275 241° Southwest 244 281 10,100 -945 Descending Albuquerque Center
Thu 08:29:17 AM 34.8678 -106.6842 259° West 158 182 9,400 -1,108 Descending Albuquerque Center
Thu 08:30:27 AM 34.9158 -106.7056 340° North 190 219 7,700 -1,230 Descending Albuquerque Center
Thu 08:31:19 AM 34.9575 -106.6975 North 168 193 6,900 -849 Descending Albuquerque Center
Thu 08:32:13 AM 34.9908 -106.6681 36° Northeast 155 178 6,200 -738 Descending Albuquerque Center
Thu 08:33:29 AM 35.0250 -106.6272 44° Northeast 155 178 5,300 -711 Descending Albuquerque Center
Thu 08:35:00 AM 35.0333 -106.6000 90° East  Level FlightAware Approximate

Login

Don't have an account? Register now (free) for customized features, flight alerts, and more!